Russell, Illinois
Current Conditions -  °F | °C
As of 5:55 AM on Monday 20 Oct 2014 (Local Time) from KUGN Reporting Station
Clear Clear  
Wind Chill:   Ceiling: Unl
Heat Index:   Visibility: 10mi
Dew Point:   Wind: 7mph
Humidity: 83%   Direction: NA
Pressure: 29.77"   Gusts: NA
Location:  42.49°N, 87.91°W
Report Text: KUGN 201055Z VRB06KT 10SM CLR 09/06 A2977 RMK AO2 LTG DSNT SE SLP084 T00890061
Loading
Personal Weather Stations






























Interactive Weather Map
Tropical Storm Tracking
New forecast layout! Learn more

10-Day Weather Forecast

Advertisements
Track Severe Weather on mobile